Time;durP1;ratioP1;P1;durP2;ratioP2;P2;SDS_P1;SDS_P2;PMS_P1;PMS_P2;Temp;Humidity;BMP_temperature;BMP_pressure;BME280_temperature;BME280_humidity;BME280_pressure;Samples;Min_cycle;Max_cycle;Signal;HPM_P1;HPM_P2
2021/05/31 00:00:57;;;;;;;;;;;17.40;99.90;;;17.07;98.84;100411.41;5035464;28;19925;-63
2021/05/31 00:03:24;;;;;;;;;;;17.40;99.90;;;17.03;98.91;100405.03;5035419;28;20345;-63
2021/05/31 00:05:51;;;;;;;;;;;17.40;99.90;;;17.02;98.91;100402.66;5034502;28;19929;-64
2021/05/31 00:08:19;;;;;;;;;;;17.40;99.90;;;17.02;99.35;100398.00;5034919;28;19925;-63
2021/05/31 00:10:46;;;;;;;;;;;17.40;99.90;;;17.05;99.15;100397.31;5035478;28;20032;-63
2021/05/31 00:13:17;;;;;;;;;;;17.40;99.90;;;17.10;99.45;100385.34;5035239;28;19925;-64
2021/05/31 00:15:44;;;;;;;;;;;17.40;99.90;;;17.10;98.86;100380.66;5034264;28;19933;-63
2021/05/31 00:18:13;;;;;;;;;;;17.40;99.90;;;17.08;99.04;100380.22;5034476;28;19925;-63
2021/05/31 00:20:41;;;;;;;;;;;17.50;99.90;;;17.04;98.59;100376.59;5035286;28;20461;-63
2021/05/31 00:23:08;;;;;;;;;;;17.40;99.90;;;17.05;98.69;100364.53;5035059;28;19925;-64
2021/05/31 00:25:35;;;;;;;;;;;17.40;99.90;;;17.12;99.08;100362.00;5034219;28;19925;-63
2021/05/31 00:28:02;;;;;;;;;;;17.40;99.90;;;17.08;97.48;100357.56;5034251;28;19932;-63
2021/05/31 00:30:32;;;;;;;;;;;17.30;99.90;;;16.94;98.15;100345.06;5034918;28;19936;-63
2021/05/31 00:33:00;;;;;;;;;;;17.30;99.90;;;16.88;98.80;100342.91;5035055;28;19925;-63
2021/05/31 00:35:27;;;;;;;;;;;17.20;99.90;;;16.92;99.99;100335.63;5034054;28;19948;-63
2021/05/31 00:37:55;;;;;;;;;;;17.20;99.90;;;16.97;100.00;100340.84;5034119;28;19932;-63
2021/05/31 00:40:23;;;;;;;;;;;17.30;99.90;;;17.00;99.95;100344.81;5034792;28;19925;-63
2021/05/31 00:42:51;;;;;;;;;;;17.30;99.90;;;17.02;99.88;100350.75;5034793;28;19925;-63
2021/05/31 00:45:18;;;;;;;;;;;17.30;99.90;;;16.96;99.48;100347.47;5033828;28;19932;-63
2021/05/31 00:47:47;;;;;;;;;;;17.30;99.90;;;16.88;98.71;100338.25;5033888;28;19929;-63
2021/05/31 00:50:15;;;;;;;;;;;17.20;99.90;;;16.83;98.92;100341.22;5034484;28;20433;-63
2021/05/31 00:52:42;;;;;;;;;;;17.20;99.90;;;16.77;99.60;100336.31;5034635;28;19925;-63
2021/05/31 00:55:10;;;;;;;;;;;17.10;99.90;;;16.70;100.00;100345.09;5033685;28;19979;-63
2021/05/31 00:57:37;;;;;;;;;;;17.00;99.90;;;16.71;100.00;100337.69;5033747;28;19925;-64
2021/05/31 01:00:07;;;;;;;;;;;17.00;99.90;;;16.77;100.00;100334.41;5034272;28;19948;-63
2021/05/31 01:02:34;;;;;;;;;;;17.10;99.90;;;16.80;100.00;100330.97;5034273;28;20306;-63
2021/05/31 01:05:03;;;;;;;;;;;17.10;99.90;;;16.86;100.00;100334.25;5033828;28;19921;-63
2021/05/31 01:07:36;;;;;;;;;;;17.20;99.90;;;16.92;100.00;100338.34;5033622;28;19933;-63
2021/05/31 01:10:11;;;;;;;;;;;17.20;99.90;;;16.89;99.62;100336.31;5034146;28;19957;-63
2021/05/31 01:12:42;;;;;;;;;;;17.30;99.90;;;16.84;98.77;100331.09;5034241;28;19936;-63
2021/05/31 01:15:11;;;;;;;;;;;17.10;99.90;;;16.78;98.48;100329.69;5033442;28;19980;-64
2021/05/31 01:17:50;;;;;;;;;;;17.10;99.90;;;16.72;99.41;100331.06;5033289;28;19980;-63
2021/05/31 01:20:35;;;;;;;;;;;17.00;99.90;;;16.69;100.00;100334.50;5033989;28;19925;-63
2021/05/31 01:23:05;;;;;;;;;;;17.00;99.90;;;16.71;100.00;100322.13;5034173;28;19925;-63
2021/05/31 01:25:37;;;;;;;;;;;17.10;99.90;;;16.73;100.00;100316.28;5033083;28;20357;-63
2021/05/31 01:28:46;;;;;;;;;;;17.10;99.90;;;16.67;100.00;100304.00;5033302;28;20311;-63
2021/05/31 01:31:16;;;;;;;;;;;17.00;99.90;;;16.71;100.00;100305.72;4998775;28;19929;-64
2021/05/31 01:33:44;;;;;;;;;;;17.00;99.90;;;16.71;100.00;100299.47;5033865;28;20032;-63
2021/05/31 01:36:12;;;;;;;;;;;17.00;99.90;;;16.71;100.00;100289.34;5032609;28;19925;-64
2021/05/31 01:38:40;;;;;;;;;;;17.00;99.90;;;16.65;99.84;100288.00;5033152;28;20302;-63
2021/05/31 01:41:08;;;;;;;;;;;16.90;99.90;;;16.59;100.00;100285.84;5033751;28;19987;-63
2021/05/31 01:43:38;;;;;;;;;;;16.90;99.90;;;16.50;100.00;100282.41;5033680;28;19925;-63
2021/05/31 01:46:06;;;;;;;;;;;16.80;99.90;;;16.45;100.00;100277.16;5032498;28;19925;-63
2021/05/31 01:48:34;;;;;;;;;;;16.70;99.90;;;16.36;100.00;100269.88;5033294;28;19925;-64
2021/05/31 01:51:02;;;;;;;;;;;16.70;99.90;;;16.31;100.00;100261.13;5032968;28;19959;-63
2021/05/31 01:53:30;;;;;;;;;;;16.60;99.90;;;16.27;100.00;100247.38;5033340;28;20383;-64
2021/05/31 01:55:58;;;;;;;;;;;16.60;99.90;;;16.21;100.00;100243.28;5032172;28;19932;-63
2021/05/31 01:58:25;;;;;;;;;;;16.50;99.90;;;16.17;100.00;100247.03;5033211;28;19925;-63
2021/05/31 02:00:53;;;;;;;;;;;16.50;99.90;;;16.17;100.00;100249.78;5033458;28;19979;-63
2021/05/31 02:03:20;;;;;;;;;;;16.50;99.90;;;16.21;100.00;100243.28;5033298;28;19936;-63
2021/05/31 02:05:49;;;;;;;;;;;16.50;99.90;;;16.25;100.00;100243.41;5032306;28;19925;-63
2021/05/31 02:08:16;;;;;;;;;;;16.50;99.90;;;16.29;100.00;100242.38;5033080;28;19925;-63
2021/05/31 02:10:43;;;;;;;;;;;16.60;99.90;;;16.31;100.00;100247.50;5033068;28;19997;-64
2021/05/31 02:13:12;;;;;;;;;;;;;;;16.30;100.00;100240.44;5033338;28;19925;-64
2021/05/31 02:15:47;;;;;;;;;;;16.60;99.90;;;16.33;100.00;100248.75;5032213;28;19929;-63
2021/05/31 02:18:18;;;;;;;;;;;16.60;99.90;;;16.35;100.00;100238.28;5032975;28;19929;-63
2021/05/31 02:20:46;;;;;;;;;;;16.60;99.90;;;16.29;100.00;100239.63;5032927;28;19925;-63
2021/05/31 02:23:15;;;;;;;;;;;16.60;99.90;;;16.22;100.00;100235.91;5032965;28;19933;-63
2021/05/31 02:25:43;;;;;;;;;;;16.50;99.90;;;16.22;100.00;100239.44;5031943;28;19925;-63
2021/05/31 02:28:12;;;;;;;;;;;16.50;99.90;;;16.28;100.00;100248.97;5032412;28;19925;-63
2021/05/31 02:30:40;;;;;;;;;;;16.50;99.90;;;16.24;100.00;100239.88;5032680;28;19979;-63
2021/05/31 02:33:08;;;;;;;;;;;16.50;99.90;;;16.26;100.00;100251.22;5032930;28;19952;-64
2021/05/31 02:35:37;;;;;;;;;;;16.50;99.90;;;16.18;100.00;100243.16;5031857;28;19995;-63
2021/05/31 02:38:05;;;;;;;;;;;16.50;99.90;;;16.20;100.00;100236.22;5032195;28;19987;-64
2021/05/31 02:40:35;;;;;;;;;;;16.50;99.90;;;16.17;100.00;100233.41;5032535;28;19928;-63
2021/05/31 02:43:05;;;;;;;;;;;16.50;99.90;;;16.20;100.00;100230.78;5032587;28;20353;-64
2021/05/31 02:45:32;;;;;;;;;;;16.50;99.90;;;16.24;100.00;100230.88;5031882;28;19995;-63
2021/05/31 02:48:00;;;;;;;;;;;16.50;99.90;;;16.31;100.00;100226.47;5031825;28;20101;-63
2021/05/31 02:50:28;;;;;;;;;;;16.60;99.90;;;16.36;100.00;100231.69;5032387;28;20375;-63
2021/05/31 02:52:55;;;;;;;;;;;16.60;99.90;;;16.39;100.00;100241.09;5032486;28;19971;-63
2021/05/31 02:55:25;;;;;;;;;;;16.70;99.90;;;16.39;100.00;100243.84;5031620;28;19932;-63
2021/05/31 02:57:54;;;;;;;;;;;16.60;99.90;;;16.41;100.00;100252.50;5031817;28;19979;-63
2021/05/31 03:00:23;;;;;;;;;;;16.70;99.90;;;16.37;100.00;100251.59;5032532;28;19929;-63
2021/05/31 03:02:51;;;;;;;;;;;16.70;99.90;;;16.36;100.00;100250.78;5031558;28;20375;-64
2021/05/31 03:05:19;;;;;;;;;;;16.70;99.90;;;16.35;100.00;100249.19;5031607;28;20390;-63
2021/05/31 03:07:46;;;;;;;;;;;16.70;99.90;;;16.37;100.00;100252.38;5031704;28;19972;-63
2021/05/31 03:10:15;;;;;;;;;;;16.70;99.90;;;16.36;100.00;100261.69;5032290;28;19932;-63
2021/05/31 03:12:43;;;;;;;;;;;16.70;99.90;;;16.26;100.00;100273.06;5032295;28;19925;-63
2021/05/31 03:15:15;;;;;;;;;;;16.60;99.90;;;16.19;100.00;100272.84;5031698;28;20386;-63
2021/05/31 03:17:43;;;;;;;;;;;16.60;99.90;;;16.19;100.00;100272.03;5031576;28;19968;-63
2021/05/31 03:20:12;;;;;;;;;;;16.60;99.90;;;16.24;100.00;100267.16;5032422;28;20322;-63
2021/05/31 03:22:40;;;;;;;;;;;16.60;99.90;;;16.25;100.00;100276.94;5032330;28;19929;-63
2021/05/31 03:25:09;;;;;;;;;;;16.60;99.90;;;16.21;100.00;100280.66;5031553;28;19929;-63
2021/05/31 03:27:36;;;;;;;;;;;16.60;99.90;;;16.26;100.00;100278.50;5031441;28;19952;-64
2021/05/31 03:30:05;;;;;;;;;;;16.60;99.90;;;16.23;100.00;100273.72;5032098;28;19929;-63
2021/05/31 03:32:33;;;;;;;;;;;16.60;99.90;;;16.17;100.00;100283.28;5032153;28;19925;-63
2021/05/31 03:35:00;;;;;;;;;;;16.50;99.90;;;16.10;100.00;100291.25;5031603;28;19936;-64
2021/05/31 03:37:28;;;;;;;;;;;16.50;99.90;;;16.12;100.00;100301.81;5030868;28;19925;-64
2021/05/31 03:39:55;;;;;;;;;;;16.50;99.90;;;16.13;100.00;100312.38;5032140;28;19948;-63
2021/05/31 03:42:22;;;;;;;;;;;16.50;99.90;;;16.11;100.00;100313.88;5031880;28;19972;-63
2021/05/31 03:44:51;;;;;;;;;;;;;;;16.06;100.00;100308.63;5031608;28;19932;-63
2021/05/31 03:47:18;;;;;;;;;;;16.40;99.90;;;16.05;100.00;100310.53;5031137;28;19978;-64
2021/05/31 03:49:47;;;;;;;;;;;16.50;99.90;;;16.04;100.00;100306.25;5031935;28;19932;-63
2021/05/31 03:52:14;;;;;;;;;;;16.50;99.90;;;16.00;100.00;100310.75;5031923;28;20031;-63
2021/05/31 03:54:42;;;;;;;;;;;16.40;99.90;;;16.05;100.00;100317.94;5031357;28;20453;-64
2021/05/31 03:57:09;;;;;;;;;;;16.40;99.90;;;16.09;100.00;100310.66;5030787;28;19926;-63
2021/05/31 03:59:36;;;;;;;;;;;16.50;99.90;;;16.16;100.00;100322.63;5031891;28;19929;-64
2021/05/31 04:02:04;;;;;;;;;;;16.50;99.90;;;16.14;99.44;100324.09;5031852;28;20379;-63
2021/05/31 04:04:40;;;;;;;;;;;16.50;99.90;;;16.12;100.00;100327.16;5031659;28;20305;-64
2021/05/31 04:12:51;;;;;;;;;;;16.50;99.90;;;16.14;100.00;100341.25;5032496;28;20064;-63
2021/05/31 04:15:19;;;;;;;;;;;16.50;99.90;;;16.19;100.00;100330.13;5034669;28;19932;-63
2021/05/31 04:17:46;;;;;;;;;;;16.60;99.90;;;16.18;100.00;100328.53;5034166;28;19933;-64
2021/05/31 04:20:15;;;;;;;;;;;16.60;99.90;;;16.17;100.00;100334.34;5035352;28;20287;-63
2021/05/31 04:22:43;;;;;;;;;;;16.60;99.90;;;16.19;100.00;100332.84;5035175;28;19979;-63
2021/05/31 04:25:12;;;;;;;;;;;16.60;99.90;;;16.21;100.00;100341.50;5034704;28;19925;-64
2021/05/31 04:27:39;;;;;;;;;;;16.60;99.90;;;16.25;100.00;100331.50;5034198;28;20314;-64
2021/05/31 04:30:08;;;;;;;;;;;16.70;99.90;;;16.29;99.76;100337.84;5035396;28;20041;-63
2021/05/31 04:32:35;;;;;;;;;;;16.70;99.90;;;16.32;99.59;100334.44;5035039;28;19925;-63
2021/05/31 04:35:03;;;;;;;;;;;16.70;99.90;;;16.36;99.59;100321.72;5034980;28;19928;-64
2021/05/31 04:37:31;;;;;;;;;;;16.70;99.90;;;16.31;99.35;100326.63;5033884;28;19925;-63
2021/05/31 04:39:59;;;;;;;;;;;16.70;99.90;;;16.35;100.00;100319.34;5034855;28;19929;-63
2021/05/31 04:42:27;;;;;;;;;;;16.70;99.90;;;16.36;100.00;100321.72;5034719;28;20307;-64
2021/05/31 04:44:54;;;;;;;;;;;16.70;99.90;;;16.39;100.00;100315.59;5034214;28;19926;-64
2021/05/31 04:47:21;;;;;;;;;;;16.80;99.90;;;16.42;100.00;100314.91;5033899;28;20363;-63
2021/05/31 04:49:48;;;;;;;;;;;16.80;99.90;;;16.50;100.00;100315.16;5034466;28;19949;-64
2021/05/31 04:52:16;;;;;;;;;;;16.80;99.90;;;16.51;100.00;100320.25;5034635;28;20291;-63
2021/05/31 04:54:43;;;;;;;;;;;16.80;99.90;;;16.54;99.58;100314.13;5034118;28;19928;-63
2021/05/31 04:57:12;;;;;;;;;;;16.90;99.90;;;16.57;99.58;100323.56;5033715;28;20303;-63
2021/05/31 04:59:39;;;;;;;;;;;16.90;99.90;;;16.60;99.40;100328.34;5034279;28;19979;-64
2021/05/31 05:02:06;;;;;;;;;;;16.90;99.90;;;16.56;98.96;100328.25;5034386;28;19925;-63
2021/05/31 05:04:34;;;;;;;;;;;16.90;99.90;;;16.55;99.53;100321.19;5034047;28;19925;-63
2021/05/31 05:07:01;;;;;;;;;;;16.90;99.90;;;16.58;99.43;100325.19;5033587;28;20143;-63
2021/05/31 05:09:28;;;;;;;;;;;16.90;99.90;;;16.62;99.14;100323.38;5034194;28;20370;-63
2021/05/31 05:11:55;;;;;;;;;;;17.00;99.90;;;16.61;98.84;100328.03;5033580;28;19932;-63
2021/05/31 05:14:24;;;;;;;;;;;17.00;99.90;;;16.62;98.57;100332.34;5034450;28;19925;-64
2021/05/31 05:16:51;;;;;;;;;;;17.00;99.90;;;16.61;98.63;100328.03;5033094;28;19925;-63
2021/05/31 05:19:19;;;;;;;;;;;16.90;99.90;;;16.60;98.95;100331.88;5034115;28;19980;-63
2021/05/31 05:21:47;;;;;;;;;;;16.90;99.90;;;16.60;99.79;100328.34;5034097;28;19929;-64
2021/05/31 05:24:14;;;;;;;;;;;16.90;99.90;;;16.64;99.97;100332.81;5033103;28;19925;-63
2021/05/31 05:26:41;;;;;;;;;;;17.00;99.90;;;16.69;99.66;100321.63;5032463;28;19925;-64
2021/05/31 05:29:08;;;;;;;;;;;17.00;99.90;;;16.65;99.16;100317.22;5033778;28;19940;-63
2021/05/31 05:31:38;;;;;;;;;;;17.00;99.90;;;16.68;99.58;100319.25;5033912;28;19925;-63
2021/05/31 05:34:06;;;;;;;;;;;17.00;99.90;;;16.67;99.07;100321.19;5034039;28;19925;-63
2021/05/31 05:36:43;;;;;;;;;;;17.00;99.90;;;16.68;99.51;100322.00;5032700;28;20008;-64
2021/05/31 05:42:16;;;;;;;;;;;17.00;99.90;;;16.73;99.46;100319.81;5023224;28;19929;-63
2021/05/31 05:45:11;;;;;;;;;;;17.10;99.90;;;16.76;99.41;100319.13;5033425;28;19960;-63
2021/05/31 05:47:43;;;;;;;;;;;17.10;99.90;;;16.81;99.35;100318.91;5032823;28;19925;-64
2021/05/31 05:50:12;;;;;;;;;;;17.10;99.90;;;16.88;99.13;100315.59;5033624;28;19929;-63
2021/05/31 05:52:39;;;;;;;;;;;17.20;99.90;;;16.94;98.73;100319.69;5033435;28;19932;-64
2021/05/31 05:55:09;;;;;;;;;;;17.20;99.90;;;16.94;98.08;100319.69;5032756;28;19932;-64
2021/05/31 05:57:37;;;;;;;;;;;17.30;99.90;;;17.00;98.05;100326.50;5032602;28;20007;-64
2021/05/31 06:00:07;;;;;;;;;;;17.30;99.90;;;17.05;97.40;100326.28;5033029;28;19925;-64
2021/05/31 06:02:34;;;;;;;;;;;17.40;99.90;;;17.07;97.24;100332.19;5033400;28;19925;-64
2021/05/31 06:05:06;;;;;;;;;;;17.40;99.90;;;17.11;97.16;100330.38;5032421;28;20513;-64
2021/05/31 06:07:34;;;;;;;;;;;17.40;99.90;;;17.06;96.68;100327.06;5032548;28;20230;-64
2021/05/31 06:10:01;;;;;;;;;;;17.40;99.90;;;17.06;96.71;100327.84;5033575;28;19929;-64
2021/05/31 06:12:28;;;;;;;;;;;17.40;99.90;;;17.10;96.92;100326.03;5033194;28;20385;-63
2021/05/31 06:14:55;;;;;;;;;;;17.40;99.90;;;17.10;96.64;100334.22;5032587;28;19921;-63
2021/05/31 06:17:23;;;;;;;;;;;17.40;99.90;;;17.12;96.40;100337.41;5032188;28;19925;-63
2021/05/31 06:19:50;;;;;;;;;;;17.40;99.90;;;17.12;96.76;100337.41;5032942;28;19932;-64
2021/05/31 06:22:19;;;;;;;;;;;17.40;99.90;;;17.14;96.83;100345.28;5033010;28;19931;-63
2021/05/31 06:24:46;;;;;;;;;;;17.50;99.90;;;17.14;96.81;100346.06;5032293;28;19932;-63
2021/05/31 06:27:14;;;;;;;;;;;17.50;99.90;;;17.17;96.20;100345.38;5032155;28;19932;-63
2021/05/31 06:29:41;;;;;;;;;;;17.50;99.90;;;17.20;95.83;100347.41;5032731;28;20322;-63
2021/05/31 06:32:08;;;;;;;;;;;17.60;99.90;;;17.19;95.95;100345.81;5032742;28;19925;-63
2021/05/31 06:34:35;;;;;;;;;;;17.50;99.90;;;17.20;95.29;100343.88;5032279;28;19932;-64
2021/05/31 06:37:03;;;;;;;;;;;17.60;99.90;;;17.19;95.57;100339.56;5031637;28;20367;-63
2021/05/31 06:39:31;;;;;;;;;;;17.50;99.90;;;17.25;95.44;100346.38;5032804;28;19929;-64
2021/05/31 06:41:59;;;;;;;;;;;17.60;99.90;;;17.34;95.08;100338.84;5032440;28;19932;-63
2021/05/31 06:44:26;;;;;;;;;;;17.70;99.90;;;17.29;93.37;100337.16;5032408;28;19933;-64
2021/05/31 06:46:53;;;;;;;;;;;17.70;99.90;;;17.36;94.44;100334.59;5031680;28;19929;-64
2021/05/31 06:49:22;;;;;;;;;;;17.70;99.90;;;17.42;94.56;100335.16;5032291;28;19944;-64
2021/05/31 06:51:50;;;;;;;;;;;17.70;99.90;;;17.43;93.75;100334.81;5032299;28;19925;-63
2021/05/31 06:54:17;;;;;;;;;;;17.80;99.90;;;17.43;93.90;100320.34;5032184;28;19929;-64
2021/05/31 06:56:46;;;;;;;;;;;17.80;99.90;;;17.46;94.17;100316.91;5031255;28;20378;-63
2021/05/31 06:59:13;;;;;;;;;;;17.80;99.90;;;17.55;93.71;100322.28;5032190;28;20438;-63
2021/05/31 07:01:41;;;;;;;;;;;17.90;99.90;;;17.56;93.25;100312.94;5032309;28;19929;-63
2021/05/31 07:04:09;;;;;;;;;;;17.90;99.90;;;17.52;93.39;100312.81;5032476;28;19925;-63
2021/05/31 07:06:36;;;;;;;;;;;17.90;99.90;;;17.47;93.12;100310.31;5031155;28;20115;-63
2021/05/31 07:09:03;;;;;;;;;;;17.90;99.90;;;17.46;94.23;100312.25;5032051;28;19948;-63
2021/05/31 07:11:30;;;;;;;;;;;17.90;99.90;;;17.52;94.88;100309.25;5032138;28;19932;-63
2021/05/31 07:14:01;;;;;;;;;;;17.90;99.90;;;17.54;93.98;100315.19;5032316;28;20344;-63
2021/05/31 07:16:30;;;;;;;;;;;17.90;99.90;;;17.63;94.48;100318.59;5031642;28;19931;-63
2021/05/31 07:18:58;;;;;;;;;;;18.00;99.90;;;17.72;93.57;100317.28;5032091;28;20392;-63
2021/05/31 07:21:25;;;;;;;;;;;18.10;99.90;;;17.71;92.27;100312.97;5032352;28;19925;-63
2021/05/31 07:23:52;;;;;;;;;;;18.00;99.90;;;17.72;93.48;100321.97;5032235;28;19980;-64
2021/05/31 07:26:20;;;;;;;;;;;18.00;99.90;;;17.80;92.88;100316.34;5031032;28;19932;-63
2021/05/31 07:28:47;;;;;;;;;;;18.10;99.90;;;17.78;91.87;100317.84;5031837;28;20325;-64
2021/05/31 07:31:16;;;;;;;;;;;18.10;99.90;;;17.79;92.28;100313.94;5031947;28;19932;-64
2021/05/31 07:33:43;;;;;;;;;;;18.10;99.90;;;17.78;92.10;100323.31;5032163;28;19925;-64
2021/05/31 07:36:11;;;;;;;;;;;18.10;99.90;;;17.72;91.35;100321.97;5031099;28;19925;-64
2021/05/31 07:38:38;;;;;;;;;;;18.10;99.90;;;17.74;91.37;100319.69;5031692;28;19925;-64
2021/05/31 07:41:05;;;;;;;;;;;18.10;99.90;;;17.77;91.63;100318.97;5031680;28;19925;-63
2021/05/31 07:43:32;;;;;;;;;;;18.20;99.90;;;17.82;90.54;100332.41;5031970;28;20037;-63
2021/05/31 07:46:00;;;;;;;;;;;18.20;99.90;;;17.77;90.33;100330.72;5031084;28;19925;-63
2021/05/31 07:48:28;;;;;;;;;;;18.20;99.90;;;17.79;90.49;100331.16;5033127;28;20379;-63
2021/05/31 07:51:14;;;;;;;;;;;18.20;99.90;;;17.84;90.23;100333.63;5035730;28;19929;-64
2021/05/31 07:53:42;;;;;;;;;;;;;;;17.87;89.83;100332.16;5035970;28;19925;-64
2021/05/31 07:56:09;;;;;;;;;;;18.20;99.90;;;17.92;90.12;100345.56;5034386;28;19925;-64
2021/05/31 07:58:36;;;;;;;;;;;18.30;99.90;;;17.94;88.27;100344.06;5035354;28;19925;-63
2021/05/31 08:01:04;;;;;;;;;;;18.30;99.90;;;17.99;88.43;100343.03;5035327;28;19929;-63
2021/05/31 08:03:32;;;;;;;;;;;18.30;99.90;;;18.02;88.70;100345.06;5035592;28;19940;-63
2021/05/31 08:06:00;;;;;;;;;;;18.40;99.90;;;18.06;88.07;100348.69;5034621;28;19925;-63
2021/05/31 08:08:27;;;;;;;;;;;18.40;99.90;;;18.03;87.77;100344.69;5034993;28;19925;-63
2021/05/31 08:10:55;;;;;;;;;;;18.40;99.90;;;18.06;87.92;100339.66;5035332;28;19932;-63
2021/05/31 08:13:23;;;;;;;;;;;18.40;99.90;;;18.15;88.72;100343.06;5035235;28;20007;-64
2021/05/31 08:15:51;;;;;;;;;;;18.50;99.90;;;18.22;87.57;100335.00;5034395;28;19933;-64
2021/05/31 08:18:19;;;;;;;;;;;18.60;99.90;;;18.28;87.62;100330.88;5035418;28;19925;-63
2021/05/31 08:20:48;;;;;;;;;;;18.60;99.90;;;18.34;87.00;100326.72;5035291;28;19967;-64
2021/05/31 08:23:15;;;;;;;;;;;18.70;99.90;;;18.38;85.86;100331.16;5034974;28;19995;-64
2021/05/31 08:25:43;;;;;;;;;;;18.80;99.90;;;18.50;84.95;100335.75;5034043;28;19941;-64
2021/05/31 08:28:11;;;;;;;;;;;18.90;99.90;;;18.62;85.50;100337.59;5034521;28;20363;-64
2021/05/31 08:30:40;;;;;;;;;;;19.00;99.90;;;18.58;83.76;100328.50;5035372;28;19925;-63
2021/05/31 08:33:08;;;;;;;;;;;19.00;99.90;;;18.53;83.74;100330.38;5034945;28;20390;-64
2021/05/31 08:35:36;;;;;;;;;;;18.90;99.90;;;18.41;83.92;100333.19;5034223;28;19925;-64
2021/05/31 08:38:05;;;;;;;;;;;18.80;99.90;;;18.39;84.63;100338.19;5034117;28;20000;-63
2021/05/31 08:40:33;;;;;;;;;;;18.80;99.90;;;18.33;84.91;100342.34;5034789;28;19932;-64
2021/05/31 08:43:00;;;;;;;;;;;18.80;99.90;;;18.26;85.01;100344.91;5034786;28;20020;-63
2021/05/31 08:45:29;;;;;;;;;;;18.70;99.90;;;18.29;85.68;100346.94;5033888;28;19925;-64
2021/05/31 08:47:57;;;;;;;;;;;18.70;99.90;;;18.26;84.91;100339.44;5034155;28;19932;-63
2021/05/31 08:50:27;;;;;;;;;;;18.70;99.90;;;18.31;86.18;100341.13;5034584;28;19925;-64
2021/05/31 08:52:55;;;;;;;;;;;18.70;99.90;;;18.26;84.13;100341.38;5034614;28;19925;-63
2021/05/31 08:55:25;;;;;;;;;;;18.70;99.90;;;18.21;85.41;100336.94;5033934;28;19940;-63
2021/05/31 08:57:53;;;;;;;;;;;18.70;99.90;;;18.27;85.15;100343.75;5034096;28;19929;-64
2021/05/31 09:00:23;;;;;;;;;;;18.70;99.90;;;18.25;83.67;100342.53;5033446;28;19932;-63
2021/05/31 09:02:51;;;;;;;;;;;18.70;99.90;;;18.29;84.08;100337.94;5034275;28;19929;-64
2021/05/31 09:05:28;;;;;;;;;;;;;;;18.39;83.02;100334.69;5033885;28;19933;-63
2021/05/31 09:07:56;;;;;;;;;;;18.80;99.90;;;18.53;83.18;100346.81;5033953;28;19925;-63
2021/05/31 09:10:25;;;;;;;;;;;18.90;99.90;;;18.58;81.14;100358.63;5034420;28;19925;-63
2021/05/31 09:12:52;;;;;;;;;;;19.00;99.90;;;18.56;80.96;100359.00;5033866;28;20374;-64
2021/05/31 09:15:20;;;;;;;;;;;19.00;99.90;;;18.59;81.06;100350.06;5033747;28;19925;-63
2021/05/31 09:17:48;;;;;;;;;;;19.00;99.90;;;18.63;81.14;100348.22;5033347;28;19925;-64
2021/05/31 09:20:16;;;;;;;;;;;19.00;99.90;;;18.78;82.17;100360.31;5034165;28;19932;-63
2021/05/31 09:22:47;;;;;;;;;;;19.10;99.90;;;19.03;80.25;100356.16;5034074;28;19933;-64
2021/05/31 09:25:28;;;;;;;;;;;19.40;99.90;;;19.14;78.50;100346.25;5033796;28;19988;-63
2021/05/31 09:27:56;;;;;;;;;;;19.50;99.90;;;19.15;78.60;100341.56;5033300;28;19933;-64
2021/05/31 09:30:38;;;;;;;;;;;19.60;99.90;;;19.10;78.61;100342.63;5033840;28;20386;-63
2021/05/31 09:33:08;;;;;;;;;;;19.60;99.90;;;19.09;78.40;100346.50;5033747;28;19925;-64
2021/05/31 09:35:39;;;;;;;;;;;19.60;99.90;;;19.15;78.58;100345.09;5033114;28;20015;-64
2021/05/31 09:38:06;;;;;;;;;;;19.70;99.90;;;19.26;78.75;100348.06;5033139;28;20359;-64
2021/05/31 09:40:35;;;;;;;;;;;19.80;99.90;;;19.31;78.33;100345.03;5033480;28;20505;-64
2021/05/31 09:43:05;;;;;;;;;;;19.90;99.90;;;19.38;76.86;100343.25;5033501;28;19936;-63
2021/05/31 09:45:33;;;;;;;;;;;19.90;99.90;;;19.47;76.74;100345.81;5032903;28;19925;-63
2021/05/31 09:48:01;;;;;;;;;;;19.90;99.90;;;19.62;76.82;100353.16;5033268;28;20040;-64
2021/05/31 09:50:30;;;;;;;;;;;20.10;99.90;;;19.73;74.37;100358.88;5033419;28;20393;-64
2021/05/31 09:53:03;;;;;;;;;;;20.20;99.90;;;19.87;74.30;100359.94;5033210;28;19929;-64
2021/05/31 09:55:37;;;;;;;;;;;20.30;99.90;;;19.85;73.38;100353.25;5032550;28;19936;-64
2021/05/31 09:58:09;;;;;;;;;;;20.30;99.90;;;20.04;74.18;100364.16;5032681;28;19932;-63
2021/05/31 10:00:37;;;;;;;;;;;20.50;99.90;;;20.25;72.96;100374.72;5033479;28;20402;-64
2021/05/31 10:06:04;;;;;;;;;;;20.90;99.90;;;20.43;71.29;100368.44;5032066;28;19925;-63
2021/05/31 10:08:41;;;;;;;;;;;20.90;99.90;;;20.45;70.23;100373.56;5032630;28;20019;-64
2021/05/31 10:11:10;;;;;;;;;;;20.90;99.90;;;20.48;71.35;100378.34;5032898;28;19925;-64
2021/05/31 10:13:41;;;;;;;;;;;20.90;99.90;;;20.50;71.72;100381.50;5033014;28;19932;-64
2021/05/31 10:16:09;;;;;;;;;;;21.00;99.90;;;20.50;71.85;100376.81;5031995;28;20026;-64
2021/05/31 10:18:41;;;;;;;;;;;21.00;99.90;;;20.61;71.09;100377.75;5032670;28;19929;-63
2021/05/31 10:21:09;;;;;;;;;;;21.10;99.90;;;20.76;70.37;100373.31;5032977;28;20299;-63
2021/05/31 10:23:36;;;;;;;;;;;21.20;99.90;;;20.87;69.96;100384.47;5032895;28;19932;-64
2021/05/31 10:26:04;;;;;;;;;;;21.40;99.90;;;20.93;67.94;100383.78;5032065;28;19933;-63
2021/05/31 10:28:34;;;;;;;;;;;21.30;99.90;;;20.95;69.34;100380.63;5032418;28;20425;-64
2021/05/31 10:31:03;;;;;;;;;;;21.40;99.90;;;21.10;69.64;100377.75;5032767;28;19929;-64
2021/05/31 10:33:37;;;;;;;;;;;21.60;99.90;;;21.27;67.06;100373.69;5032556;28;19933;-63
2021/05/31 10:36:14;;;;;;;;;;;21.80;99.90;;;21.36;66.83;100379.72;5032010;28;19929;-64
2021/05/31 10:38:44;;;;;;;;;;;22.00;99.90;;;21.36;66.24;100385.22;5032445;28;19929;-63
2021/05/31 10:41:13;;;;;;;;;;;;;;;21.36;67.55;100385.22;5032613;28;19925;-63
2021/05/31 10:43:47;;;;;;;;;;;22.10;99.90;;;21.37;66.73;100386.78;5032318;28;20371;-64
2021/05/31 10:46:16;;;;;;;;;;;22.00;99.90;;;21.36;66.40;100401.72;5032031;28;19925;-64
2021/05/31 10:48:44;;;;;;;;;;;22.00;99.90;;;21.38;67.06;100393.88;5032000;28;20388;-64
2021/05/31 10:51:17;;;;;;;;;;;22.00;99.90;;;21.45;66.28;100399.47;5032631;28;19925;-63
2021/05/31 10:53:45;;;;;;;;;;;22.10;99.90;;;21.56;66.38;100402.34;5032266;28;19929;-63
2021/05/31 10:56:21;;;;;;;;;;;22.30;99.90;;;21.61;65.91;100396.56;5031508;28;19925;-64
2021/05/31 10:58:52;;;;;;;;;;;22.30;99.90;;;21.52;65.69;100396.81;5031728;28;19925;-63
2021/05/31 11:01:20;;;;;;;;;;;;;;;21.67;64.90;100395.81;5032590;28;19933;-64
2021/05/31 11:03:51;;;;;;;;;;;22.30;99.90;;;22.01;63.09;100398.63;5032167;28;19980;-64
2021/05/31 11:06:20;;;;;;;;;;;22.60;99.90;;;22.04;62.72;100392.38;5031721;28;19925;-63
2021/05/31 11:08:50;;;;;;;;;;;22.60;99.90;;;22.10;62.83;100402.66;5031477;28;19925;-63
2021/05/31 11:11:30;;;;;;;;;;;22.70;99.90;;;22.03;62.89;100396.28;5032471;28;19980;-63
2021/05/31 11:14:00;;;;;;;;;;;22.70;99.90;;;21.95;62.76;100400.09;5032163;28;19925;-63
2021/05/31 11:16:28;;;;;;;;;;;22.60;99.90;;;21.67;63.31;100401.31;5031350;28;20383;-63
2021/05/31 11:18:58;;;;;;;;;;;22.40;99.90;;;21.43;64.48;100407.28;5031736;28;19925;-63
2021/05/31 11:21:31;;;;;;;;;;;22.20;99.90;;;21.35;65.76;100405.63;5032289;28;19972;-63
2021/05/31 11:24:04;;;;;;;;;;;22.00;99.90;;;21.39;66.21;100406.47;5035108;28;19988;-63
2021/05/31 11:26:35;;;;;;;;;;;22.00;99.90;;;21.36;65.81;100412.72;5035250;28;20294;-63
2021/05/31 11:29:05;;;;;;;;;;;21.90;99.90;;;21.38;66.77;100404.09;5035660;28;19932;-64